Time;durP1;ratioP1;P1;durP2;ratioP2;P2;SDS_P1;SDS_P2;PMS_P1;PMS_P2;Temp;Humidity;BMP_temperature;BMP_pressure;BME280_temperature;BME280_humidity;BME280_pressure;Samples;Min_cycle;Max_cycle;Signal;HPM_P1;HPM_P2
2022/05/29 00:00:50;;;;;;;4.00;2.83;;;9.10;58.00;;;;;;5048461;28;20543;-60
2022/05/29 00:03:16;;;;;;;4.27;2.73;;;9.10;58.20;;;;;;5046565;28;20496;-60
2022/05/29 00:05:44;;;;;;;3.57;2.60;;;9.00;58.10;;;;;;5040407;28;20429;-59
2022/05/29 00:08:13;;;;;;;6.23;2.87;;;9.00;58.20;;;;;;5051979;28;20600;-59
2022/05/29 00:10:41;;;;;;;6.30;3.17;;;9.00;58.30;;;;;;5045535;28;20430;-60
2022/05/29 00:13:07;;;;;;;9.27;3.77;;;9.00;58.50;;;;;;5045819;28;20446;-60
2022/05/29 00:15:33;;;;;;;6.37;3.63;;;9.00;58.60;;;;;;5043069;28;20436;-59
2022/05/29 00:17:58;;;;;;;8.57;3.87;;;8.90;58.80;;;;;;5046149;28;20460;-60
2022/05/29 00:20:24;;;;;;;4.93;3.40;;;8.90;58.90;;;;;;5045455;28;20179;-60
2022/05/29 00:22:50;;;;;;;7.83;4.17;;;8.80;59.20;;;;;;5044804;28;20709;-61
2022/05/29 00:25:15;;;;;;;6.20;3.70;;;8.80;59.30;;;;;;5056273;28;20183;-60
2022/05/29 00:27:41;;;;;;;6.57;3.73;;;8.70;59.40;;;;;;5054771;28;20440;-60
2022/05/29 00:30:10;;;;;;;2.90;2.53;;;8.70;59.60;;;;;;5049646;28;20595;-60
2022/05/29 00:32:36;;;;;;;2.50;2.30;;;8.70;59.90;;;;;;5054970;28;20294;-60
2022/05/29 00:35:02;;;;;;;3.23;2.33;;;8.70;59.80;;;;;;5048907;28;20521;-60
2022/05/29 00:37:33;;;;;;;6.93;2.50;;;8.60;60.00;;;;;;5049728;28;20175;-60
2022/05/29 00:39:58;;;;;;;4.03;2.10;;;8.60;60.10;;;;;;5062628;28;20848;-60
2022/05/29 00:42:25;;;;;;;6.27;2.97;;;8.50;60.30;;;;;;5046201;28;20536;-60
2022/05/29 00:44:51;;;;;;;13.23;2.83;;;8.60;60.50;;;;;;5042536;28;20193;-59
2022/05/29 00:47:19;;;;;;;4.40;2.90;;;8.50;60.60;;;;;;5059602;28;20432;-60
2022/05/29 00:49:47;;;;;;;5.73;2.93;;;8.60;61.00;;;;;;5048302;28;20633;-60
2022/05/29 00:52:21;;;;;;;8.03;5.50;;;8.50;61.20;;;;;;5045252;28;20450;-60
2022/05/29 00:54:55;;;;;;;12.40;6.27;;;8.50;61.30;;;;;;5047285;28;20482;-60
2022/05/29 00:57:24;;;;;;;4.73;3.60;;;8.50;61.80;;;;;;5047880;28;20452;-60
2022/05/29 00:59:50;;;;;;;6.40;2.60;;;8.50;62.10;;;;;;5049899;28;20931;-60
2022/05/29 01:02:16;;;;;;;7.33;2.60;;;8.50;62.60;;;;;;5048732;28;20480;-60
2022/05/29 01:04:42;;;;;;;3.20;2.73;;;8.50;62.80;;;;;;5055822;28;20561;-60
2022/05/29 01:07:13;;;;;;;6.10;2.53;;;8.50;62.70;;;;;;5054895;28;20255;-60
2022/05/29 01:09:41;;;;;;;4.07;2.50;;;8.60;62.90;;;;;;5055499;28;20492;-60
2022/05/29 01:12:32;;;;;;;2.90;2.13;;;8.60;62.40;;;;;;5043464;28;20438;-60
2022/05/29 01:15:22;;;;;;;5.60;2.63;;;8.50;62.10;;;;;;5034601;28;20433;-60
2022/05/29 01:18:08;;;;;;;5.40;2.63;;;8.50;62.40;;;;;;5046281;28;20528;-59
2022/05/29 01:21:04;;;;;;;3.37;2.70;;;8.50;62.50;;;;;;5045337;28;20454;-60
2022/05/29 01:23:45;;;;;;;3.60;2.60;;;8.50;62.50;;;;;;5052016;28;20476;-60
2022/05/29 01:26:46;;;;;;;4.37;2.43;;;8.50;62.70;;;;;;5044868;28;20429;-60
2022/05/29 01:29:17;;;;;;;3.00;2.67;;;8.40;63.00;;;;;;5047049;28;20455;-60
2022/05/29 01:31:56;;;;;;;5.53;2.70;;;8.40;63.10;;;;;;5050285;28;20464;-61
2022/05/29 01:34:31;;;;;;;4.93;2.20;;;8.40;63.00;;;;;;5038058;28;20436;-60
2022/05/29 01:37:10;;;;;;;6.90;2.20;;;8.40;62.90;;;;;;5042904;28;20520;-60
2022/05/29 01:39:41;;;;;;;7.23;3.07;;;8.40;62.90;;;;;;5042051;28;20580;-60
2022/05/29 01:42:25;;;;;;;3.00;2.73;;;8.30;64.00;;;;;;5047311;28;21007;-60
2022/05/29 01:44:59;;;;;;;5.40;2.70;;;8.20;64.10;;;;;;5044834;28;20428;-60
2022/05/29 01:47:32;;;;;;;3.10;2.60;;;8.20;64.20;;;;;;5054814;28;20501;-59
2022/05/29 01:50:04;;;;;;;4.30;2.90;;;8.10;65.10;;;;;;5043936;28;20530;-59
2022/05/29 01:52:40;;;;;;;4.70;2.70;;;8.10;66.20;;;;;;5054336;28;20519;-59
2022/05/29 01:55:14;;;;;;;8.90;3.87;;;8.00;66.40;;;;;;5041362;28;20498;-59
2022/05/29 01:57:44;;;;;;;3.40;2.47;;;8.00;67.30;;;;;;5057493;28;20804;-60
2022/05/29 02:00:28;;;;;;;3.23;2.90;;;8.00;67.00;;;;;;5044158;28;20437;-60
2022/05/29 02:03:11;;;;;;;74.37;31.00;;;8.00;67.00;;;;;;5051123;28;20460;-59
2022/05/29 02:05:48;;;;;;;25.77;12.13;;;8.00;67.80;;;;;;5053538;28;20430;-60
2022/05/29 02:08:36;;;;;;;10.10;6.50;;;8.10;68.60;;;;;;5045085;28;20457;-59
2022/05/29 02:11:09;;;;;;;14.97;6.47;;;8.10;68.20;;;;;;5038239;28;20430;-60
2022/05/29 02:13:49;;;;;;;4.57;3.40;;;8.10;68.50;;;;;;5045553;28;20533;-60
2022/05/29 02:16:20;;;;;;;5.13;3.03;;;8.10;68.90;;;;;;5060540;28;21132;-60
2022/05/29 02:18:58;;;;;;;4.40;2.40;;;8.10;68.90;;;;;;5047180;28;20410;-60
2022/05/29 02:21:48;;;;;;;5.60;3.03;;;8.10;69.20;;;;;;5037069;28;20433;-61
2022/05/29 02:24:17;;;;;;;6.33;2.53;;;8.00;69.00;;;;;;5045410;28;20445;-60
2022/05/29 02:26:52;;;;;;;9.30;3.10;;;8.00;69.70;;;;;;5045061;28;20495;-59
2022/05/29 02:29:17;;;;;;;7.77;3.23;;;8.00;69.60;;;;;;5048657;28;20453;-60
2022/05/29 02:32:16;;;;;;;3.60;3.10;;;8.00;70.30;;;;;;5047111;28;20438;-59
2022/05/29 02:35:14;;;;;;;5.17;2.87;;;7.90;70.30;;;;;;5051898;28;20179;-60
2022/05/29 02:37:46;;;;;;;4.80;2.80;;;7.90;70.80;;;;;;5058099;28;20428;-60
2022/05/29 02:40:26;;;;;;;4.10;3.20;;;7.90;70.80;;;;;;5047115;28;20972;-60
2022/05/29 02:43:16;;;;;;;4.17;2.83;;;7.90;71.30;;;;;;5053869;28;20438;-59
2022/05/29 02:45:51;;;;;;;3.03;2.60;;;7.90;71.90;;;;;;5050983;28;20425;-60
2022/05/29 02:48:40;;;;;;;2.97;2.70;;;7.80;72.10;;;;;;5044187;28;20600;-59
2022/05/29 02:51:32;;;;;;;7.80;3.20;;;7.80;72.20;;;;;;5046181;28;20524;-60
2022/05/29 02:53:58;;;;;;;4.60;3.30;;;7.80;72.50;;;;;;5044151;28;20527;-59
2022/05/29 02:56:24;;;;;;;3.60;2.73;;;7.70;73.00;;;;;;5044887;28;21021;-60
2022/05/29 02:58:52;;;;;;;8.20;3.50;;;7.70;73.10;;;;;;5036137;28;20661;-59
2022/05/29 03:01:37;;;;;;;7.50;3.70;;;7.60;73.70;;;;;;5044903;28;20172;-60
2022/05/29 03:04:17;;;;;;;4.00;3.03;;;7.60;73.90;;;;;;5043829;28;20537;-60
2022/05/29 03:07:11;;;;;;;6.17;3.73;;;7.50;75.70;;;;;;5044066;28;20436;-60
2022/05/29 03:09:57;;;;;;;6.93;3.70;;;7.50;76.30;;;;;;5056322;28;20992;-60
2022/05/29 03:13:08;;;;;;;5.10;3.30;;;7.40;77.30;;;;;;5032156;28;21002;-60
2022/05/29 03:15:43;;;;;;;10.67;3.57;;;7.40;77.70;;;;;;5038614;28;20434;-59
2022/05/29 03:18:24;;;;;;;4.80;2.90;;;7.40;78.10;;;;;;5056038;28;20440;-59
2022/05/29 03:21:09;;;;;;;3.47;3.00;;;7.40;79.00;;;;;;5032665;28;20520;-60
2022/05/29 03:23:46;;;;;;;5.87;3.67;;;7.40;79.70;;;;;;5054718;28;20507;-59
2022/05/29 03:26:32;;;;;;;9.10;3.50;;;7.30;80.10;;;;;;5037256;28;20433;-59
2022/05/29 03:29:32;;;;;;;6.03;3.77;;;7.30;80.10;;;;;;5045273;28;20515;-59
2022/05/29 03:31:58;;;;;;;13.03;4.57;;;7.30;80.70;;;;;;5048712;28;20445;-59
2022/05/29 03:34:24;;;;;;;4.73;3.30;;;7.30;82.60;;;;;;5044328;28;20414;-59
2022/05/29 03:36:51;;;;;;;8.53;4.40;;;7.30;83.50;;;;;;5046494;28;20508;-59
2022/05/29 03:39:17;;;;;;;8.90;3.80;;;7.30;84.60;;;;;;5044629;28;20225;-59
2022/05/29 03:41:46;;;;;;;5.87;3.80;;;7.30;85.00;;;;;;5038209;28;20438;-59
2022/05/29 03:44:15;;;;;;;3.57;3.27;;;7.30;84.50;;;;;;5043840;28;20829;-60
2022/05/29 03:46:40;;;;;;;4.43;3.80;;;7.30;84.80;;;;;;5040458;28;20442;-59
2022/05/29 03:49:10;;;;;;;5.30;4.40;;;7.20;84.50;;;;;;5036393;28;20842;-60
2022/05/29 03:51:37;;;;;;;7.80;4.23;;;7.20;84.70;;;;;;5045390;28;20459;-59
2022/05/29 03:54:03;;;;;;;5.70;4.80;;;7.20;85.20;;;;;;5055200;28;20522;-60
2022/05/29 03:56:30;;;;;;;8.70;3.77;;;7.20;85.00;;;;;;5051774;28;20476;-59
2022/05/29 03:58:56;;;;;;;4.90;4.07;;;7.20;87.20;;;;;;5048467;28;20430;-60
2022/05/29 04:01:22;;;;;;;5.30;4.63;;;7.20;88.70;;;;;;5041116;28;20526;-59
2022/05/29 04:03:48;;;;;;;4.50;4.10;;;7.20;89.20;;;;;;5041405;28;20986;-60
2022/05/29 04:06:13;;;;;;;8.10;4.33;;;7.30;89.60;;;;;;5038732;28;20179;-59
2022/05/29 04:14:07;;;;;;;5.87;4.03;;;7.40;87.60;;;;;;5039597;28;20908;-60
2022/05/29 04:16:33;;;;;;;4.40;3.67;;;7.40;88.20;;;;;;5050743;28;20436;-59
2022/05/29 04:18:59;;;;;;;5.70;4.83;;;7.50;87.50;;;;;;5048486;28;20171;-60
2022/05/29 04:21:25;;;;;;;11.10;3.87;;;7.60;86.60;;;;;;5043839;28;20680;-59
2022/05/29 04:23:50;;;;;;;4.30;3.90;;;7.60;85.80;;;;;;5044884;28;20454;-60
2022/05/29 04:26:17;;;;;;;6.30;3.70;;;7.70;84.40;;;;;;5045903;28;20732;-60
2022/05/29 04:28:43;;;;;;;4.60;4.13;;;7.70;85.40;;;;;;5046381;28;20191;-60
2022/05/29 04:31:10;;;;;;;6.17;4.10;;;7.80;86.20;;;;;;5041898;28;20461;-59
2022/05/29 04:33:36;;;;;;;4.93;3.50;;;7.80;85.90;;;;;;5048790;28;20537;-59
2022/05/29 04:36:02;;;;;;;7.13;4.03;;;7.90;83.90;;;;;;5050812;28;20423;-60
2022/05/29 04:38:28;;;;;;;5.30;4.00;;;7.90;81.80;;;;;;5058509;28;20409;-60
2022/05/29 04:40:55;;;;;;;6.20;4.07;;;7.90;80.50;;;;;;5046434;28;20506;-59
2022/05/29 04:43:21;;;;;;;9.87;4.07;;;7.90;82.10;;;;;;5049547;28;20448;-59
2022/05/29 04:45:51;;;;;;;7.53;3.93;;;8.00;81.90;;;;;;5045583;28;20843;-59
2022/05/29 04:48:16;;;;;;;8.40;3.83;;;8.10;83.90;;;;;;5032828;28;20737;-60
2022/05/29 04:50:43;;;;;;;8.23;3.73;;;8.20;82.80;;;;;;5039888;28;20437;-60
2022/05/29 04:53:10;;;;;;;5.20;3.70;;;8.20;80.30;;;;;;5048526;28;20198;-60
2022/05/29 04:55:39;;;;;;;9.13;4.20;;;8.30;81.10;;;;;;5051703;28;20422;-61
2022/05/29 04:58:05;;;;;;;7.10;4.53;;;8.30;83.00;;;;;;5031620;28;20445;-59
2022/05/29 05:00:31;;;;;;;4.57;3.70;;;8.40;84.20;;;;;;5036269;28;20436;-59
2022/05/29 05:02:57;;;;;;;5.93;3.60;;;8.50;82.50;;;;;;5041301;28;20449;-61
2022/05/29 05:05:23;;;;;;;4.80;3.77;;;8.60;80.20;;;;;;5045170;28;20175;-60
2022/05/29 05:07:48;;;;;;;6.70;4.00;;;8.70;79.00;;;;;;5055155;28;20175;-60
2022/05/29 05:10:15;;;;;;;5.20;3.60;;;8.80;76.10;;;;;;5040587;28;20421;-60
2022/05/29 05:12:41;;;;;;;4.30;3.67;;;8.90;74.10;;;;;;5057463;28;20217;-60
2022/05/29 05:15:09;;;;;;;6.70;3.80;;;8.90;73.00;;;;;;5048536;28;20425;-59
2022/05/29 05:17:35;;;;;;;6.73;3.10;;;9.00;73.00;;;;;;5054563;28;20448;-60
2022/05/29 05:20:01;;;;;;;6.80;3.63;;;9.10;73.20;;;;;;5044195;28;21085;-59
2022/05/29 05:22:26;;;;;;;4.70;3.47;;;9.00;72.80;;;;;;5052261;28;20195;-60
2022/05/29 05:24:52;;;;;;;9.50;4.20;;;9.10;73.30;;;;;;5046644;28;20445;-60
2022/05/29 05:27:18;;;;;;;5.63;3.43;;;9.10;73.20;;;;;;5056237;28;20249;-59
2022/05/29 05:29:44;;;;;;;4.23;3.83;;;9.10;72.60;;;;;;5050210;28;20205;-60
2022/05/29 05:32:10;;;;;;;6.00;3.47;;;9.10;72.10;;;;;;5038452;28;20441;-59
2022/05/29 05:34:36;;;;;;;3.60;3.30;;;9.10;72.20;;;;;;5047537;28;20425;-60
2022/05/29 05:37:02;;;;;;;8.13;3.90;;;9.20;72.40;;;;;;5046805;28;20960;-60
2022/05/29 05:39:28;;;;;;;4.63;3.57;;;9.30;73.10;;;;;;5048659;28;20199;-60
2022/05/29 05:41:54;;;;;;;5.10;3.50;;;9.40;72.10;;;;;;5061645;28;20177;-60
2022/05/29 05:44:20;;;;;;;4.70;3.77;;;9.40;73.20;;;;;;5046412;28;20429;-59
2022/05/29 05:46:48;;;;;;;4.57;3.07;;;9.60;73.60;;;;;;5046453;28;20547;-60
2022/05/29 05:49:17;;;;;;;8.63;3.70;;;9.70;74.10;;;;;;5042064;28;20461;-60
2022/05/29 05:51:43;;;;;;;7.30;3.50;;;9.90;74.30;;;;;;5065049;28;20425;-59
2022/05/29 05:54:11;;;;;;;10.30;3.60;;;10.00;71.20;;;;;;5056454;28;20453;-60
2022/05/29 05:56:44;;;;;;;5.90;3.13;;;10.10;70.10;;;;;;5041930;28;20485;-59
2022/05/29 05:59:10;;;;;;;4.47;3.23;;;10.30;66.10;;;;;;5036006;28;20464;-60
2022/05/29 06:01:37;;;;;;;5.20;3.50;;;10.30;64.60;;;;;;5045854;28;20438;-60
2022/05/29 06:04:02;;;;;;;6.47;3.20;;;10.40;64.00;;;;;;5048925;28;21022;-60
2022/05/29 06:06:28;;;;;;;7.23;3.57;;;10.50;63.90;;;;;;5056790;28;20460;-60
2022/05/29 06:08:55;;;;;;;4.60;3.40;;;10.60;64.20;;;;;;5048854;28;20191;-60
2022/05/29 06:11:20;;;;;;;10.17;3.70;;;10.70;64.50;;;;;;5052249;28;20170;-60
2022/05/29 06:13:46;;;;;;;5.97;3.20;;;10.80;64.10;;;;;;5045688;28;21117;-59
2022/05/29 06:16:12;;;;;;;4.37;3.33;;;10.90;64.20;;;;;;5042802;28;20688;-60
2022/05/29 06:18:37;;;;;;;5.60;2.97;;;11.00;64.40;;;;;;5049132;28;20525;-60
2022/05/29 06:21:04;;;;;;;8.93;3.50;;;11.10;63.20;;;;;;5056017;28;20209;-60
2022/05/29 06:23:31;;;;;;;4.80;2.87;;;11.20;62.40;;;;;;5044990;28;20571;-60
2022/05/29 06:26:01;;;;;;;5.20;3.10;;;11.30;61.90;;;;;;5041079;28;20586;-60
2022/05/29 06:28:27;;;;;;;6.97;2.90;;;11.40;62.10;;;;;;5047285;28;20536;-61
2022/05/29 06:30:53;;;;;;;3.70;2.60;;;11.50;60.10;;;;;;5054648;28;20516;-61
2022/05/29 06:33:18;;;;;;;6.53;2.90;;;11.60;59.70;;;;;;5040950;28;20332;-61
2022/05/29 06:35:44;;;;;;;4.33;2.50;;;11.70;59.60;;;;;;5034465;28;20183;-61
2022/05/29 06:38:10;;;;;;;3.90;2.60;;;11.80;58.70;;;;;;5053481;28;20174;-61
2022/05/29 06:40:39;;;;;;;4.37;2.80;;;11.90;58.50;;;;;;5057050;28;20183;-60
2022/05/29 06:43:05;;;;;;;6.13;2.60;;;12.10;58.00;;;;;;5045136;28;20530;-60
2022/05/29 06:45:30;;;;;;;5.90;2.67;;;12.30;57.20;;;;;;5045556;28;20931;-61
2022/05/29 06:47:56;;;;;;;3.60;2.30;;;12.50;56.60;;;;;;5049597;28;20179;-60
2022/05/29 06:50:21;;;;;;;7.73;2.63;;;12.60;56.30;;;;;;5045573;28;20167;-61
2022/05/29 06:52:47;;;;;;;7.47;2.83;;;12.70;55.00;;;;;;5039056;28;20256;-61
2022/05/29 06:55:15;;;;;;;2.47;2.27;;;12.80;55.00;;;;;;5036643;28;20175;-60
2022/05/29 06:57:41;;;;;;;2.77;2.13;;;12.80;54.20;;;;;;5042553;28;20199;-60
2022/05/29 07:08:30;;;;;;;3.30;2.43;;;13.30;52.30;;;;;;5030994;28;20512;-60
2022/05/29 07:11:05;;;;;;;2.80;2.30;;;13.40;52.50;;;;;;5043538;28;20418;-60
2022/05/29 07:13:33;;;;;;;4.77;2.10;;;13.60;51.80;;;;;;5036459;28;20187;-61
2022/05/29 07:15:58;;;;;;;4.20;3.00;;;13.80;50.70;;;;;;5033250;28;20437;-61
2022/05/29 07:18:24;;;;;;;7.93;2.60;;;13.90;49.80;;;;;;5038399;28;20426;-61
2022/05/29 07:20:50;;;;;;;5.20;2.10;;;14.00;49.10;;;;;;5041206;28;20220;-58
2022/05/29 07:23:15;;;;;;;4.50;2.63;;;14.10;48.80;;;;;;5041248;28;20228;-61
2022/05/29 07:25:42;;;;;;;2.93;1.90;;;14.20;49.00;;;;;;5033855;28;20733;-54
2022/05/29 07:28:08;;;;;;;2.53;2.10;;;14.30;49.20;;;;;;5033002;28;20196;-54
2022/05/29 07:30:35;;;;;;;4.37;2.10;;;14.50;48.80;;;;;;5034413;28;20455;-60
2022/05/29 07:33:00;;;;;;;2.43;2.23;;;14.60;48.20;;;;;;5033618;28;20480;-59
2022/05/29 07:35:27;;;;;;;4.10;2.00;;;14.70;47.40;;;;;;5035935;28;20478;-60
2022/05/29 07:37:53;;;;;;;2.30;1.90;;;14.80;47.80;;;;;;5039845;28;20186;-60
2022/05/29 07:40:18;;;;;;;3.53;2.40;;;14.90;48.10;;;;;;5038354;28;20426;-60
2022/05/29 07:45:28;;;;;;;2.53;2.10;;;15.20;47.90;;;;;;5035952;28;20186;-59
2022/05/29 07:47:55;;;;;;;2.40;2.20;;;15.30;47.70;;;;;;5040914;28;20430;-60
2022/05/29 07:50:21;;;;;;;5.93;2.30;;;15.20;47.00;;;;;;5034497;28;20230;-59
2022/05/29 07:52:50;;;;;;;4.87;1.73;;;15.00;46.60;;;;;;5041625;28;20449;-56
2022/05/29 07:55:17;;;;;;;2.30;2.10;;;14.70;46.10;;;;;;5036842;28;20421;-59
2022/05/29 07:57:42;;;;;;;5.87;2.27;;;14.50;46.90;;;;;;5031742;28;20980;-60
2022/05/29 08:00:12;;;;;;;3.13;2.03;;;14.30;47.70;;;;;;5028877;28;20442;-60
2022/05/29 08:02:38;;;;;;;2.37;2.10;;;14.10;47.70;;;;;;5033689;28;20203;-60
2022/05/29 08:05:06;;;;;;;4.20;2.00;;;13.90;48.40;;;;;;5035910;28;20463;-60
2022/05/29 08:07:32;;;;;;;2.60;2.40;;;13.70;47.90;;;;;;5033948;28;20679;-61
2022/05/29 08:09:58;;;;;;;5.63;2.07;;;13.60;48.40;;;;;;5033986;28;20515;-61
2022/05/29 08:12:24;;;;;;;3.10;2.10;;;13.50;48.90;;;;;;5028187;28;20192;-61
2022/05/29 08:14:49;;;;;;;4.03;2.40;;;13.40;49.40;;;;;;5034381;28;20519;-62
2022/05/29 08:17:15;;;;;;;7.00;2.50;;;13.30;49.10;;;;;;5034435;28;20188;-59
2022/05/29 08:19:41;;;;;;;3.30;2.30;;;13.30;49.50;;;;;;5028886;28;20582;-60
2022/05/29 08:22:07;;;;;;;3.13;2.00;;;13.20;50.00;;;;;;5038849;28;20262;-60
2022/05/29 08:33:01;;;;;;;3.53;3.07;;;12.90;51.20;;;;;;5031238;28;20522;-59
2022/05/29 08:35:27;;;;;;;4.10;2.60;;;12.70;51.00;;;;;;5032515;28;20434;-61
2022/05/29 08:37:54;;;;;;;6.90;2.53;;;12.70;51.30;;;;;;5037025;28;20267;-62
2022/05/29 08:40:20;;;;;;;3.10;2.33;;;12.70;52.10;;;;;;5042396;28;21131;-61
2022/05/29 08:42:46;;;;;;;5.10;2.60;;;12.70;52.30;;;;;;5032228;28;20541;-60
2022/05/29 08:45:14;;;;;;;5.50;2.67;;;12.90;53.00;;;;;;5026982;28;20232;-61
2022/05/29 08:47:41;;;;;;;2.47;2.20;;;13.20;52.90;;;;;;5036044;28;22047;-60
2022/05/29 08:50:16;;;;;;;3.20;2.43;;;13.60;53.30;;;;;;5039133;28;20934;-61
2022/05/29 08:52:54;;;;;;;4.43;3.00;;;14.00;53.80;;;;;;5034298;28;20457;-60
2022/05/29 08:55:26;;;;;;;5.60;2.50;;;14.50;53.20;;;;;;5030869;28;20929;-60
2022/05/29 08:58:07;;;;;;;2.50;2.30;;;14.80;52.30;;;;;;5030511;28;21109;-60
2022/05/29 09:00:55;;;;;;;2.60;2.30;;;15.00;50.90;;;;;;5030689;28;20437;-61
2022/05/29 09:03:45;;;;;;;2.80;2.23;;;15.00;50.70;;;;;;5035418;28;20452;-61
2022/05/29 09:06:16;;;;;;;4.40;2.50;;;15.20;50.20;;;;;;5032924;28;20945;-60
2022/05/29 09:09:06;;;;;;;6.20;2.57;;;15.30;49.80;;;;;;5039254;28;21001;-59
2022/05/29 09:11:37;;;;;;;3.90;2.40;;;15.20;48.90;;;;;;5041260;28;21184;-59
2022/05/29 09:14:12;;;;;;;4.83;2.30;;;15.00;47.00;;;;;;5033738;28;21231;-60
2022/05/29 09:16:44;;;;;;;3.40;2.33;;;14.70;47.60;;;;;;5032619;28;20432;-60
2022/05/29 09:19:34;;;;;;;4.40;3.30;;;14.50;47.50;;;;;;5034108;28;20426;-60
2022/05/29 09:22:19;;;;;;;4.70;2.50;;;14.30;47.40;;;;;;5035597;28;20434;-60
2022/05/29 09:25:08;;;;;;;6.07;2.50;;;14.00;48.10;;;;;;5030415;28;21368;-61
2022/05/29 09:27:37;;;;;;;6.33;2.40;;;13.80;49.00;;;;;;5033222;28;20812;-59
2022/05/29 09:30:05;;;;;;;2.43;2.23;;;13.60;48.90;;;;;;5037235;28;20809;-60
2022/05/29 09:32:34;;;;;;;6.00;2.67;;;13.40;49.30;;;;;;5023410;28;21027;-61
2022/05/29 09:35:37;;;;;;;4.60;2.73;;;13.30;50.10;;;;;;5036403;28;20432;-61
2022/05/29 09:38:34;;;;;;;4.93;2.87;;;13.30;50.90;;;;;;4989480;28;20430;-59
2022/05/29 09:41:27;;;;;;;4.33;2.33;;;13.60;51.70;;;;;;5035318;28;20434;-60
2022/05/29 09:44:17;;;;;;;5.00;2.10;;;14.10;52.80;;;;;;5035642;28;20453;-61
2022/05/29 09:46:45;;;;;;;4.73;2.40;;;14.80;51.60;;;;;;5039641;28;20433;-60
2022/05/29 09:49:40;;;;;;;4.03;2.00;;;15.30;50.20;;;;;;5036592;28;21269;-60
2022/05/29 09:52:33;;;;;;;6.80;2.30;;;15.70;48.10;;;;;;5037097;28;20798;-60
2022/05/29 09:55:17;;;;;;;3.17;1.90;;;16.00;49.10;;;;;;5033699;28;20453;-60
2022/05/29 09:57:56;;;;;;;4.20;2.07;;;16.30;48.80;;;;;;5030506;28;20653;-61
2022/05/29 10:00:36;;;;;;;4.50;2.50;;;16.50;48.10;;;;;;5035498;28;20429;-61
2022/05/29 10:03:04;;;;;;;2.73;2.30;;;16.60;48.10;;;;;;5031327;28;20556;-58
2022/05/29 10:05:41;;;;;;;5.40;1.90;;;16.70;47.40;;;;;;5038321;28;20445;-60
2022/05/29 10:08:38;;;;;;;4.57;1.70;;;16.50;45.30;;;;;;5044264;28;20479;-59
2022/05/29 10:11:26;;;;;;;8.03;2.20;;;16.30;45.60;;;;;;5030841;28;20441;-60
2022/05/29 10:13:52;;;;;;;3.50;2.10;;;16.50;46.10;;;;;;5036592;28;20511;-61
2022/05/29 10:16:35;;;;;;;2.70;1.70;;;16.60;45.20;;;;;;5033651;28;20430;-59
2022/05/29 10:19:02;;;;;;;3.20;1.97;;;16.40;44.50;;;;;;5038692;28;20183;-60
2022/05/29 10:21:31;;;;;;;3.67;1.87;;;16.20;45.00;;;;;;5037377;28;20444;-61
2022/05/29 10:24:18;;;;;;;3.00;2.00;;;15.90;44.90;;;;;;5040155;28;20557;-61
2022/05/29 10:26:48;;;;;;;3.27;2.47;;;15.50;44.80;;;;;;5037755;28;20944;-61
2022/05/29 10:29:27;;;;;;;4.10;2.23;;;15.30;45.20;;;;;;5040147;28;20473;-61
2022/05/29 10:31:54;;;;;;;3.33;2.33;;;15.00;45.70;;;;;;5039331;28;20467;-60
2022/05/29 10:34:29;;;;;;;4.20;2.17;;;14.90;46.30;;;;;;5038662;28;20454;-61
2022/05/29 10:36:56;;;;;;;4.70;2.20;;;14.80;46.90;;;;;;5034786;28;20425;-61
2022/05/29 10:39:35;;;;;;;3.00;2.20;;;14.70;47.80;;;;;;5034363;28;20488;-62
2022/05/29 10:42:01;;;;;;;3.40;2.20;;;14.60;47.50;;;;;;5035234;28;20853;-62
2022/05/29 10:44:44;;;;;;;3.37;2.50;;;14.40;47.80;;;;;;5037001;28;20434;-61
2022/05/29 10:47:41;;;;;;;8.83;2.50;;;14.30;48.90;;;;;;5035609;28;20648;-61
2022/05/29 10:50:27;;;;;;;3.60;2.10;;;14.40;49.10;;;;;;5036452;28;20476;-61
2022/05/29 10:52:56;;;;;;;3.37;2.27;;;14.60;49.60;;;;;;5033456;28;20449;-59
2022/05/29 10:55:31;;;;;;;4.37;2.60;;;15.00;49.20;;;;;;5037245;28;20430;-55
2022/05/29 10:58:23;;;;;;;4.00;2.50;;;15.20;48.10;;;;;;5036561;28;20494;-53
2022/05/29 11:04:43;;;;;;;5.87;2.50;;;15.10;46.20;;;;;;5040315;28;20526;-61
2022/05/29 11:07:23;;;;;;;7.37;2.30;;;14.90;47.30;;;;;;5040771;28;20847;-61
2022/05/29 11:10:04;;;;;;;6.57;2.80;;;14.80;46.90;;;;;;5038384;28;20476;-62
2022/05/29 11:12:38;;;;;;;3.60;2.30;;;14.60;47.00;;;;;;5038376;28;20526;-61
2022/05/29 11:15:16;;;;;;;2.53;2.27;;;14.40;46.40;;;;;;5042308;28;20512;-61
2022/05/29 11:18:00;;;;;;;4.40;2.17;;;14.20;46.90;;;;;;5041440;28;20429;-61
2022/05/29 11:20:45;;;;;;;2.40;2.13;;;14.00;48.20;;;;;;5039350;28;20473;-60
2022/05/29 11:23:35;;;;;;;3.50;2.30;;;13.80;48.10;;;;;;5033416;28;20808;-60
2022/05/29 11:26:09;;;;;;;3.57;2.27;;;13.60;48.60;;;;;;5031061;28;20448;-59
2022/05/29 11:29:04;;;;;;;3.80;2.60;;;13.40;49.30;;;;;;5036281;28;21003;-60
2022/05/29 11:31:36;;;;;;;2.80;2.60;;;13.30;50.40;;;;;;5004478;28;20430;-61
2022/05/29 11:34:43;;;;;;;8.20;2.00;;;13.30;50.90;;;;;;5032959;28;20472;-60
2022/05/29 11:37:21;;;;;;;5.00;2.20;;;13.20;49.80;;;;;;5033440;28;20434;-61
2022/05/29 11:40:01;;;;;;;5.20;2.33;;;13.00;50.00;;;;;;5034130;28;20516;-60
2022/05/29 11:42:43;;;;;;;4.67;2.40;;;12.90;51.30;;;;;;5034465;28;20510;-60
2022/05/29 11:45:24;;;;;;;8.03;2.53;;;12.90;51.50;;;;;;5038505;28;20516;-56
2022/05/29 11:51:22;;;;;;;6.03;2.50;;;13.00;51.50;;;;;;5034154;28;20555;-60
2022/05/29 11:53:58;;;;;;;5.77;2.23;;;13.10;50.80;;;;;;5033672;28;20442;-60
2022/05/29 11:56:33;;;;;;;3.27;2.43;;;13.30;50.30;;;;;;5027814;28;21048;-60
2022/05/29 11:59:08;;;;;;;2.90;2.00;;;13.30;49.80;;;;;;5038434;28;20435;-61
2022/05/29 12:01:42;;;;;;;7.63;2.40;;;13.40;50.90;;;;;;5040575;28;20425;-61
2022/05/29 12:04:40;;;;;;;2.00;1.90;;;13.50;51.00;;;;;;5034150;28;20992;-60
2022/05/29 12:07:57;;;;;;;3.10;2.10;;;13.70;48.90;;;;;;5013463;28;20434;-60
2022/05/29 12:10:26;;;;;;;2.50;2.13;;;13.70;47.60;;;;;;5017925;28;20438;-60
2022/05/29 12:13:01;;;;;;;4.13;1.90;;;13.70;47.60;;;;;;5030855;28;20978;-60
2022/05/29 12:15:30;;;;;;;1.70;1.60;;;13.70;47.50;;;;;;5028945;28;20436;-60
2022/05/29 12:18:05;;;;;;;2.30;2.07;;;13.70;47.50;;;;;;5034627;28;20445;-60
2022/05/29 12:20:36;;;;;;;2.10;1.60;;;13.60;46.70;;;;;;5033878;28;21325;-60
2022/05/29 12:23:09;;;;;;;3.33;1.63;;;13.50;46.10;;;;;;5033748;28;20448;-60
2022/05/29 12:25:45;;;;;;;5.57;1.93;;;13.40;46.70;;;;;;5034092;28;20958;-61
2022/05/29 12:28:43;;;;;;;1.77;1.67;;;13.40;47.00;;;;;;5029543;28;21171;-60
2022/05/29 12:31:17;;;;;;;3.23;1.70;;;13.30;47.70;;;;;;5029780;28;20488;-59
2022/05/29 12:33:45;;;;;;;3.33;2.33;;;13.30;48.30;;;;;;5033074;28;20445;-61
2022/05/29 12:36:19;;;;;;;4.70;2.40;;;13.40;48.70;;;;;;5037170;28;21017;-59
2022/05/29 12:39:08;;;;;;;7.67;2.10;;;13.50;49.50;;;;;;5034537;28;20811;-59
2022/05/29 12:41:46;;;;;;;2.70;1.90;;;13.60;48.50;;;;;;5032882;28;20462;-60
2022/05/29 12:44:42;;;;;;;4.27;2.50;;;13.70;47.70;;;;;;5034451;28;20941;-62
2022/05/29 12:47:33;;;;;;;3.63;2.30;;;13.80;48.00;;;;;;5044293;28;20437;-60
2022/05/29 12:50:13;;;;;;;1.80;1.70;;;13.80;47.80;;;;;;5033863;28;20552;-61
2022/05/29 12:52:45;;;;;;;4.67;1.80;;;13.80;46.30;;;;;;5041124;28;20486;-61
2022/05/29 12:55:38;;;;;;;3.70;1.87;;;13.80;46.10;;;;;;5033788;28;20453;-61
2022/05/29 12:58:58;;;;;;;3.03;1.87;;;13.70;46.30;;;;;;5031460;28;20442;-61
2022/05/29 13:01:45;;;;;;;3.00;2.30;;;13.60;46.60;;;;;;5029344;28;20839;-61
2022/05/29 13:04:22;;;;;;;2.00;1.67;;;13.50;47.00;;;;;;5026562;28;20457;-61
2022/05/29 13:06:48;;;;;;;5.97;1.80;;;13.40;48.40;;;;;;5045551;28;20459;-61
2022/05/29 13:09:39;;;;;;;5.07;2.40;;;13.30;48.80;;;;;;5032340;28;20451;-61
2022/05/29 13:12:12;;;;;;;3.00;1.80;;;13.30;49.20;;;;;;5034988;28;20538;-61
2022/05/29 13:14:44;;;;;;;3.27;1.90;;;13.40;50.10;;;;;;5032445;28;20421;-60
2022/05/29 13:17:12;;;;;;;6.17;2.67;;;13.40;49.30;;;;;;5035794;28;20422;-61
2022/05/29 13:19:57;;;;;;;3.33;2.60;;;13.40;52.60;;;;;;5034654;28;20701;-60
2022/05/29 13:22:56;;;;;;;3.00;2.70;;;13.50;53.80;;;;;;5030080;28;21040;-61
2022/05/29 13:25:28;;;;;;;3.20;2.67;;;13.50;54.90;;;;;;5033369;28;20444;-61
2022/05/29 13:27:56;;;;;;;3.53;2.20;;;13.70;55.80;;;;;;5029397;28;20430;-62
2022/05/29 13:30:37;;;;;;;4.03;2.30;;;13.90;55.50;;;;;;5034086;28;20465;-62
2022/05/29 13:33:24;;;;;;;2.63;2.30;;;14.40;55.30;;;;;;5035612;28;20445;-61
2022/05/29 13:35:50;;;;;;;5.73;2.73;;;14.50;54.60;;;;;;5035139;28;20798;-61
2022/05/29 13:38:53;;;;;;;3.37;2.50;;;14.40;54.40;;;;;;5040865;28;20508;-62
2022/05/29 13:41:30;;;;;;;3.20;2.53;;;14.30;54.60;;;;;;5039178;28;20198;-61
2022/05/29 13:43:57;;;;;;;3.33;2.20;;;13.90;54.00;;;;;;5040893;28;20460;-62
2022/05/29 13:46:26;;;;;;;2.17;1.97;;;13.60;54.40;;;;;;5041717;28;20422;-61
2022/05/29 13:49:16;;;;;;;3.83;2.10;;;13.40;55.00;;;;;;5043044;28;20503;-62
2022/05/29 13:51:44;;;;;;;3.37;2.73;;;13.20;56.30;;;;;;5040123;28;21005;-62
2022/05/29 13:54:25;;;;;;;3.97;2.63;;;13.20;56.60;;;;;;5038898;28;20532;-61
2022/05/29 13:57:08;;;;;;;2.63;2.37;;;13.20;57.20;;;;;;5035849;28;20587;-61